createdAt,value
2022-08-31T00:00:46.959Z,18.67
2022-08-31T00:03:13.266Z,18.64
2022-08-31T00:05:39.526Z,18.56
2022-08-31T00:08:05.695Z,18.48
2022-08-31T00:10:36.773Z,18.51
2022-08-31T00:13:04.091Z,18.43
2022-08-31T00:15:30.375Z,18.42
2022-08-31T00:17:56.623Z,18.37
2022-08-31T00:20:33.460Z,18.38
2022-08-31T00:23:00.275Z,18.31
2022-08-31T00:25:26.423Z,18.33
2022-08-31T00:27:52.580Z,18.24
2022-08-31T00:30:18.736Z,18.20
2022-08-31T00:32:44.894Z,18.16
2022-08-31T00:35:11.030Z,18.10
2022-08-31T00:37:37.180Z,18.13
2022-08-31T00:40:03.356Z,18.12
2022-08-31T00:42:29.517Z,18.07
2022-08-31T00:44:55.636Z,17.99
2022-08-31T00:47:21.772Z,18.06
2022-08-31T00:49:47.894Z,18.01
2022-08-31T00:52:14.048Z,17.98
2022-08-31T00:54:40.193Z,17.97
2022-08-31T00:57:06.328Z,17.96
2022-08-31T00:59:32.462Z,17.94
2022-08-31T01:01:58.666Z,17.97
2022-08-31T01:04:24.833Z,17.97
2022-08-31T01:06:50.974Z,17.95
2022-08-31T01:09:17.127Z,17.93
2022-08-31T01:11:43.258Z,17.94
2022-08-31T01:14:09.391Z,17.94
2022-08-31T01:16:35.610Z,17.86
2022-08-31T01:19:01.794Z,17.76
2022-08-31T01:21:27.929Z,17.80
2022-08-31T01:23:54.082Z,17.80
2022-08-31T01:26:20.230Z,17.70
2022-08-31T01:28:46.361Z,17.72
2022-08-31T01:31:12.551Z,17.74
2022-08-31T01:33:38.688Z,17.70
2022-08-31T01:36:04.830Z,17.80
2022-08-31T01:38:31.009Z,17.84
2022-08-31T01:40:57.128Z,17.76
2022-08-31T01:43:23.260Z,17.79
2022-08-31T01:45:49.421Z,17.77
2022-08-31T01:48:15.567Z,17.76
2022-08-31T01:50:41.724Z,17.77
2022-08-31T01:53:08.102Z,17.72
2022-08-31T01:55:34.242Z,17.77
2022-08-31T01:58:00.385Z,17.78
2022-08-31T02:00:26.531Z,17.74
2022-08-31T02:02:52.701Z,17.74
2022-08-31T02:05:18.833Z,17.70
2022-08-31T02:07:44.983Z,17.67
2022-08-31T02:10:11.126Z,17.66
2022-08-31T02:12:37.298Z,17.67
2022-08-31T02:15:03.478Z,17.77
2022-08-31T02:17:29.618Z,17.68
2022-08-31T02:19:55.761Z,17.63
2022-08-31T02:22:21.912Z,17.61
2022-08-31T02:24:48.068Z,17.69
2022-08-31T02:27:14.212Z,17.64
2022-08-31T02:29:40.368Z,17.56
2022-08-31T02:32:06.492Z,17.61
2022-08-31T02:34:32.620Z,17.61
2022-08-31T02:36:58.796Z,17.64
2022-08-31T02:39:25.265Z,17.71
2022-08-31T02:41:51.394Z,17.63
2022-08-31T02:44:17.553Z,17.66
2022-08-31T02:46:43.722Z,17.67
2022-08-31T02:49:09.897Z,17.63
2022-08-31T02:51:36.068Z,17.62
2022-08-31T02:54:02.205Z,17.72
2022-08-31T02:56:28.344Z,17.69
2022-08-31T02:58:54.713Z,17.67
2022-08-31T03:01:21.230Z,17.62
2022-08-31T03:03:48.780Z,17.60
2022-08-31T03:06:15.055Z,17.59
2022-08-31T03:08:41.210Z,17.56
2022-08-31T03:11:07.333Z,17.64
2022-08-31T03:13:33.477Z,17.65
2022-08-31T03:15:59.651Z,17.71
2022-08-31T03:18:25.873Z,17.62
2022-08-31T03:20:52.502Z,17.62
2022-08-31T03:23:18.748Z,17.62
2022-08-31T03:25:44.972Z,17.70
2022-08-31T03:28:11.132Z,17.72
2022-08-31T03:30:37.270Z,17.70
2022-08-31T03:33:03.421Z,17.59
2022-08-31T03:35:29.585Z,17.61
2022-08-31T03:37:55.736Z,17.61
2022-08-31T03:40:21.940Z,17.64
2022-08-31T03:42:48.150Z,17.64
2022-08-31T03:45:14.303Z,17.62
2022-08-31T03:47:44.834Z,17.59
2022-08-31T03:50:11.854Z,17.58
2022-08-31T03:52:38.007Z,17.59
2022-08-31T03:55:04.141Z,17.52
2022-08-31T03:57:30.779Z,17.52
2022-08-31T03:59:56.897Z,17.55
2022-08-31T04:02:23.052Z,17.57
2022-08-31T04:04:49.239Z,17.55
2022-08-31T04:07:15.381Z,17.63
2022-08-31T04:09:41.510Z,17.64
2022-08-31T04:12:07.661Z,17.67
2022-08-31T04:14:33.816Z,17.59
2022-08-31T04:16:59.950Z,17.63
2022-08-31T04:19:26.110Z,17.63
2022-08-31T04:21:52.252Z,17.59
2022-08-31T04:24:18.394Z,17.60
2022-08-31T04:26:44.541Z,17.58
2022-08-31T04:29:13.447Z,17.53
2022-08-31T04:31:39.939Z,17.51
2022-08-31T04:34:06.101Z,17.56
2022-08-31T04:36:32.240Z,17.59
2022-08-31T04:38:58.388Z,17.57
2022-08-31T04:41:24.692Z,17.59
2022-08-31T04:43:50.818Z,17.59
2022-08-31T04:46:17.010Z,17.60
2022-08-31T04:48:45.471Z,17.58
2022-08-31T04:51:11.605Z,17.57
2022-08-31T04:53:37.737Z,17.61
2022-08-31T04:56:03.894Z,17.56
2022-08-31T04:58:30.029Z,17.56
2022-08-31T05:00:56.215Z,17.51
2022-08-31T05:03:22.460Z,17.48
2022-08-31T05:05:48.595Z,17.47
2022-08-31T05:08:14.738Z,17.55
2022-08-31T05:10:40.900Z,17.56
2022-08-31T05:13:07.021Z,17.55
2022-08-31T05:15:33.179Z,17.52
2022-08-31T05:17:59.361Z,17.49
2022-08-31T05:20:25.513Z,17.50
2022-08-31T05:22:51.671Z,17.49
2022-08-31T05:25:18.134Z,17.51
2022-08-31T05:27:44.275Z,17.45
2022-08-31T05:30:10.415Z,17.44
2022-08-31T05:32:37.952Z,17.40
2022-08-31T05:35:05.498Z,17.42
2022-08-31T05:37:31.646Z,17.40
2022-08-31T05:39:57.796Z,17.38
2022-08-31T05:42:23.950Z,17.41
2022-08-31T05:44:50.088Z,17.40
2022-08-31T05:47:16.247Z,17.40
2022-08-31T05:49:42.368Z,17.45
2022-08-31T05:52:09.950Z,17.42
2022-08-31T05:54:37.161Z,17.40
2022-08-31T05:57:03.300Z,17.37
2022-08-31T05:59:29.456Z,17.41
2022-08-31T06:01:55.693Z,17.52
2022-08-31T06:04:21.878Z,17.48
2022-08-31T06:06:48.075Z,17.50
2022-08-31T06:09:14.339Z,17.52
2022-08-31T06:11:40.493Z,17.40
2022-08-31T06:14:06.645Z,17.43
2022-08-31T06:16:32.850Z,17.49
2022-08-31T06:18:59.019Z,17.54
2022-08-31T06:21:25.160Z,17.56
2022-08-31T06:23:51.308Z,17.54
2022-08-31T06:26:17.459Z,17.64
2022-08-31T06:28:43.598Z,17.60
2022-08-31T06:31:09.778Z,17.72
2022-08-31T06:33:35.942Z,17.78
2022-08-31T06:36:02.084Z,17.85
2022-08-31T06:38:29.029Z,17.94
2022-08-31T06:40:58.951Z,18.05
2022-08-31T06:43:25.102Z,18.15
2022-08-31T06:45:51.338Z,18.19
2022-08-31T06:48:17.524Z,18.27
2022-08-31T06:50:43.757Z,18.22
2022-08-31T06:53:09.936Z,18.30
2022-08-31T06:55:36.103Z,18.34
2022-08-31T06:58:02.250Z,18.36
2022-08-31T07:00:28.405Z,18.44
2022-08-31T07:02:57.958Z,18.46
2022-08-31T07:05:24.673Z,18.47
2022-08-31T07:07:51.102Z,18.45
2022-08-31T07:10:17.238Z,18.50
2022-08-31T07:12:43.373Z,18.58
2022-08-31T07:15:09.551Z,18.59
2022-08-31T07:17:35.697Z,18.64
2022-08-31T07:20:01.838Z,18.79
2022-08-31T07:22:27.981Z,18.85
2022-08-31T07:24:54.109Z,18.90
2022-08-31T07:27:20.246Z,19.03
2022-08-31T07:29:46.932Z,19.12
2022-08-31T07:32:13.097Z,19.14
2022-08-31T07:34:39.358Z,19.17
2022-08-31T07:37:05.563Z,19.22
2022-08-31T07:39:31.681Z,19.22
2022-08-31T07:41:57.821Z,19.30
2022-08-31T07:44:23.982Z,19.31
2022-08-31T07:46:50.213Z,19.41
2022-08-31T07:49:16.354Z,19.53
2022-08-31T07:51:42.516Z,19.55
2022-08-31T07:54:08.648Z,19.61
2022-08-31T07:56:35.197Z,19.77
2022-08-31T07:59:01.385Z,19.89
2022-08-31T08:01:27.581Z,19.97
2022-08-31T08:03:53.738Z,19.99
2022-08-31T08:06:19.888Z,20.12
2022-08-31T08:08:57.073Z,19.99
2022-08-31T08:11:32.358Z,20.11
2022-08-31T08:13:58.604Z,20.21
2022-08-31T08:16:24.805Z,20.27
2022-08-31T08:18:51.040Z,20.30
2022-08-31T08:21:17.185Z,20.43
2022-08-31T08:23:46.395Z,20.56
2022-08-31T08:26:21.811Z,20.58
2022-08-31T08:28:48.401Z,20.60
2022-08-31T08:31:14.796Z,20.63
2022-08-31T08:33:41.036Z,20.76
2022-08-31T08:36:07.168Z,20.70
2022-08-31T08:38:33.316Z,20.71
2022-08-31T08:40:59.449Z,20.83
2022-08-31T08:43:30.181Z,20.80
2022-08-31T08:45:57.090Z,20.89
2022-08-31T08:48:23.262Z,20.80
2022-08-31T08:50:49.397Z,20.98
2022-08-31T08:53:15.551Z,21.10
2022-08-31T08:55:41.694Z,21.21
2022-08-31T08:58:07.838Z,21.18
2022-08-31T09:00:34.011Z,21.25
2022-08-31T09:03:00.219Z,21.18
2022-08-31T09:05:26.426Z,21.16
2022-08-31T09:07:52.568Z,21.38
2022-08-31T09:10:18.759Z,21.47
2022-08-31T09:12:44.942Z,21.49
2022-08-31T09:15:11.421Z,21.46
2022-08-31T09:17:37.549Z,21.62
2022-08-31T09:20:03.682Z,21.66
2022-08-31T09:22:29.848Z,21.65
2022-08-31T09:24:55.977Z,21.69
2022-08-31T09:27:22.123Z,21.37
2022-08-31T09:29:48.306Z,21.26
2022-08-31T09:32:14.446Z,21.26
2022-08-31T09:34:40.582Z,21.31
2022-08-31T09:37:06.730Z,20.95
2022-08-31T09:39:37.382Z,21.23
2022-08-31T09:42:03.632Z,21.47
2022-08-31T09:44:30.180Z,21.55
2022-08-31T09:46:56.317Z,21.57
2022-08-31T09:49:22.451Z,21.59
2022-08-31T09:51:48.601Z,21.72
2022-08-31T09:54:14.747Z,21.76
2022-08-31T09:56:40.873Z,21.80
2022-08-31T09:59:08.734Z,21.80
2022-08-31T10:01:34.956Z,21.87
2022-08-31T10:04:01.157Z,21.65
2022-08-31T10:06:27.301Z,21.96
2022-08-31T10:08:53.449Z,22.04
2022-08-31T10:11:19.597Z,22.14
2022-08-31T10:13:45.760Z,22.21
2022-08-31T10:16:11.981Z,22.38
2022-08-31T10:18:38.198Z,22.49
2022-08-31T10:21:04.340Z,22.55
2022-08-31T10:23:32.199Z,22.69
2022-08-31T10:25:58.356Z,22.46
2022-08-31T10:28:24.514Z,22.46
2022-08-31T10:30:50.728Z,22.49
2022-08-31T10:33:16.886Z,22.38
2022-08-31T10:35:43.085Z,22.37
2022-08-31T10:38:09.227Z,22.65
2022-08-31T10:40:35.453Z,22.56
2022-08-31T10:43:01.639Z,22.57
2022-08-31T10:45:27.755Z,22.74
2022-08-31T10:47:53.886Z,22.84
2022-08-31T10:50:20.029Z,22.89
2022-08-31T10:52:46.181Z,23.15
2022-08-31T10:55:12.323Z,23.13
2022-08-31T10:57:38.482Z,23.15
2022-08-31T11:00:04.624Z,23.29
2022-08-31T11:02:30.768Z,23.37
2022-08-31T11:04:57.007Z,23.24
2022-08-31T11:07:23.156Z,23.25
2022-08-31T11:09:49.306Z,23.30
2022-08-31T11:12:15.470Z,23.55
2022-08-31T11:14:41.597Z,23.57
2022-08-31T11:17:07.740Z,23.47
2022-08-31T11:19:38.434Z,23.54
2022-08-31T11:22:04.605Z,23.47
2022-08-31T11:24:34.908Z,23.43
2022-08-31T11:27:03.215Z,23.31
2022-08-31T11:29:29.355Z,23.22
2022-08-31T11:31:55.517Z,23.41
2022-08-31T11:34:21.653Z,23.53
2022-08-31T11:36:48.950Z,23.60
2022-08-31T11:39:15.082Z,23.61
2022-08-31T11:41:41.777Z,23.72
2022-08-31T11:44:07.900Z,23.80
2022-08-31T11:46:34.473Z,23.95
2022-08-31T11:49:00.795Z,23.95
2022-08-31T11:51:26.926Z,24.11
2022-08-31T11:53:53.056Z,24.02
2022-08-31T11:56:19.219Z,24.14
2022-08-31T11:58:45.346Z,24.15
2022-08-31T12:01:11.474Z,24.37
2022-08-31T12:03:37.621Z,24.54
2022-08-31T12:06:03.749Z,24.55
2022-08-31T12:08:29.879Z,24.57
2022-08-31T12:10:56.026Z,24.49
2022-08-31T12:13:22.171Z,24.68
2022-08-31T12:15:48.395Z,24.55
2022-08-31T12:18:14.582Z,24.39
2022-08-31T12:20:40.722Z,23.95
2022-08-31T12:23:06.873Z,23.77
2022-08-31T12:25:33.074Z,24.00
2022-08-31T12:27:59.211Z,23.72
2022-08-31T12:30:25.349Z,23.81
2022-08-31T12:32:51.506Z,24.12
2022-08-31T12:35:17.660Z,24.16
2022-08-31T12:37:43.789Z,24.37
2022-08-31T12:40:09.967Z,24.55
2022-08-31T12:42:36.158Z,24.35
2022-08-31T12:45:02.286Z,24.44
2022-08-31T12:47:28.450Z,24.37
2022-08-31T12:49:54.651Z,24.24
2022-08-31T12:52:20.811Z,24.43
2022-08-31T12:54:46.977Z,24.44
2022-08-31T12:57:13.124Z,24.40
2022-08-31T12:59:57.365Z,24.44
2022-08-31T13:02:25.550Z,24.35
2022-08-31T13:04:51.740Z,24.35
2022-08-31T13:07:17.922Z,24.26
2022-08-31T13:09:44.077Z,24.03
2022-08-31T13:12:10.221Z,24.22
2022-08-31T13:14:36.363Z,24.21
2022-08-31T13:17:02.600Z,24.04
2022-08-31T13:19:28.761Z,24.27
2022-08-31T13:21:54.925Z,24.31
2022-08-31T13:24:21.091Z,24.42
2022-08-31T13:26:47.217Z,24.39
2022-08-31T13:29:13.353Z,24.48
2022-08-31T13:31:39.603Z,24.56
2022-08-31T13:34:05.978Z,24.60
2022-08-31T13:36:32.257Z,24.53
2022-08-31T13:38:58.557Z,24.60
2022-08-31T13:41:24.700Z,24.59
2022-08-31T13:43:50.848Z,24.58
2022-08-31T13:46:17.059Z,24.73
2022-08-31T13:48:43.251Z,24.87
2022-08-31T13:51:09.398Z,24.94
2022-08-31T13:53:35.565Z,25.12
2022-08-31T13:56:01.744Z,25.16
2022-08-31T13:58:27.900Z,25.21
2022-08-31T14:00:54.103Z,25.09
2022-08-31T14:03:20.376Z,24.81
2022-08-31T14:05:46.715Z,25.01
2022-08-31T14:08:12.857Z,24.96
2022-08-31T14:10:38.986Z,25.12
2022-08-31T14:13:05.126Z,25.07
2022-08-31T14:15:31.280Z,25.09
2022-08-31T14:20:58.136Z,24.80
2022-08-31T14:23:29.669Z,24.74
2022-08-31T14:25:55.821Z,24.37
2022-08-31T14:28:21.962Z,24.55
2022-08-31T14:30:48.106Z,24.54
2022-08-31T14:33:14.346Z,24.63
2022-08-31T14:35:43.825Z,24.71
2022-08-31T14:38:09.968Z,24.81
2022-08-31T14:40:36.214Z,24.91
2022-08-31T14:43:02.409Z,24.47
2022-08-31T14:45:28.555Z,24.58
2022-08-31T14:47:54.716Z,24.78
2022-08-31T14:50:20.866Z,24.98
2022-08-31T14:52:47.003Z,25.18
2022-08-31T14:55:13.153Z,26.06
2022-08-31T14:57:39.326Z,25.91
2022-08-31T15:00:06.132Z,26.53
2022-08-31T15:02:32.341Z,27.69
2022-08-31T15:04:58.515Z,29.09
2022-08-31T15:07:24.640Z,29.94
2022-08-31T15:09:50.795Z,31.51
2022-08-31T15:12:16.932Z,32.60
2022-08-31T15:14:43.089Z,32.28
2022-08-31T15:17:10.937Z,32.05
2022-08-31T15:19:45.558Z,27.72
2022-08-31T15:22:11.714Z,26.84
2022-08-31T15:24:37.857Z,28.54
2022-08-31T15:27:03.988Z,31.25
2022-08-31T15:29:30.151Z,31.61
2022-08-31T15:31:56.703Z,32.87
2022-08-31T15:34:22.898Z,33.34
2022-08-31T15:36:49.081Z,33.42
2022-08-31T15:39:15.217Z,29.72
2022-08-31T15:41:41.350Z,32.52
2022-08-31T15:44:07.496Z,32.97
2022-08-31T15:46:33.630Z,33.17
2022-08-31T15:48:59.756Z,33.23
2022-08-31T15:51:27.246Z,33.27
2022-08-31T15:54:18.542Z,32.80
2022-08-31T15:56:39.803Z,33.35
2022-08-31T15:59:06.059Z,32.85
2022-08-31T16:01:32.351Z,32.22
2022-08-31T16:03:58.661Z,32.26
2022-08-31T16:06:24.922Z,32.35
2022-08-31T16:08:51.176Z,31.18
2022-08-31T16:11:17.451Z,31.62
2022-08-31T16:13:43.692Z,30.64
2022-08-31T16:16:10.017Z,29.30
2022-08-31T16:18:36.332Z,29.19
2022-08-31T16:21:02.564Z,29.64
2022-08-31T16:23:28.809Z,29.68
2022-08-31T16:25:55.090Z,29.98
2022-08-31T16:28:21.728Z,29.70
2022-08-31T16:30:48.191Z,30.01
2022-08-31T16:33:14.463Z,30.73
2022-08-31T16:35:40.706Z,31.32
2022-08-31T16:38:06.983Z,31.39
2022-08-31T16:40:33.310Z,31.60
2022-08-31T16:42:59.702Z,31.71
2022-08-31T16:45:25.990Z,31.93
2022-08-31T16:47:52.279Z,31.37
2022-08-31T16:50:18.533Z,31.36
2022-08-31T16:52:44.785Z,31.38
2022-08-31T16:55:11.099Z,31.46
2022-08-31T16:57:37.361Z,30.84
2022-08-31T17:00:03.616Z,30.81
2022-08-31T17:02:29.917Z,29.87
2022-08-31T17:04:56.187Z,29.55
2022-08-31T17:07:22.432Z,29.85
2022-08-31T17:09:48.710Z,29.00
2022-08-31T17:12:14.968Z,29.26
2022-08-31T17:14:41.213Z,28.96
2022-08-31T17:17:07.466Z,28.81
2022-08-31T17:19:33.722Z,28.49
2022-08-31T17:21:59.979Z,28.12
2022-08-31T17:24:26.270Z,27.28
2022-08-31T17:26:52.513Z,27.49
2022-08-31T17:29:18.766Z,27.50
2022-08-31T17:31:45.444Z,27.93
2022-08-31T17:34:11.724Z,27.76
2022-08-31T17:36:37.974Z,27.67
2022-08-31T17:39:04.295Z,27.60
2022-08-31T17:41:30.537Z,27.62
2022-08-31T17:43:56.795Z,27.61
2022-08-31T17:46:23.112Z,27.18
2022-08-31T17:48:49.384Z,27.10
2022-08-31T17:51:15.638Z,26.33
2022-08-31T17:53:41.932Z,26.13
2022-08-31T17:56:08.178Z,26.02
2022-08-31T17:58:34.430Z,25.60
2022-08-31T18:01:00.716Z,25.42
2022-08-31T18:03:26.998Z,25.47
2022-08-31T18:05:53.274Z,25.09
2022-08-31T18:08:19.721Z,24.67
2022-08-31T18:10:46.076Z,24.59
2022-08-31T18:13:12.323Z,24.33
2022-08-31T18:15:38.589Z,24.14
2022-08-31T18:18:04.833Z,23.80
2022-08-31T18:20:31.743Z,23.79
2022-08-31T18:22:58.023Z,23.70
2022-08-31T18:25:24.286Z,23.54
2022-08-31T18:27:50.552Z,23.50
2022-08-31T18:30:16.840Z,23.41
2022-08-31T18:32:47.533Z,23.24
2022-08-31T18:35:14.029Z,23.07
2022-08-31T18:37:40.292Z,22.88
2022-08-31T18:40:08.468Z,22.87
2022-08-31T18:42:35.055Z,22.75
2022-08-31T18:45:01.374Z,22.65
2022-08-31T18:47:27.617Z,22.64
2022-08-31T18:49:53.870Z,22.52
2022-08-31T18:52:20.149Z,22.49
2022-08-31T18:54:46.407Z,22.51
2022-08-31T18:57:12.644Z,22.27
2022-08-31T18:59:38.903Z,22.25
2022-08-31T19:02:05.312Z,22.15
2022-08-31T19:04:31.675Z,22.04
2022-08-31T19:06:57.937Z,22.06
2022-08-31T19:09:24.190Z,22.05
2022-08-31T19:11:51.401Z,21.94
2022-08-31T19:14:17.831Z,21.89
2022-08-31T19:16:44.146Z,21.84
2022-08-31T19:19:10.436Z,21.90
2022-08-31T19:21:36.711Z,21.86
2022-08-31T19:24:02.962Z,21.83
2022-08-31T19:26:31.402Z,21.78
2022-08-31T19:28:57.675Z,21.69
2022-08-31T19:31:23.945Z,21.74
2022-08-31T19:33:56.058Z,21.66
2022-08-31T19:36:22.599Z,21.65
2022-08-31T19:38:48.845Z,21.62
2022-08-31T19:41:15.536Z,21.57
2022-08-31T19:43:44.890Z,21.52
2022-08-31T19:46:15.079Z,21.47
2022-08-31T19:48:44.616Z,21.48
2022-08-31T19:51:10.940Z,21.47
2022-08-31T19:53:37.203Z,21.42
2022-08-31T19:56:08.870Z,21.32
2022-08-31T19:58:35.687Z,21.38
2022-08-31T20:01:01.966Z,21.28
2022-08-31T20:03:28.251Z,21.29
2022-08-31T20:05:54.545Z,21.28
2022-08-31T20:08:20.794Z,21.10
2022-08-31T20:10:47.041Z,21.14
2022-08-31T20:13:13.398Z,21.12
2022-08-31T20:15:39.770Z,21.06
2022-08-31T20:18:06.078Z,21.09
2022-08-31T20:20:32.353Z,21.00
2022-08-31T20:22:58.605Z,20.93
2022-08-31T20:25:24.856Z,20.91
2022-08-31T20:27:51.564Z,20.84
2022-08-31T20:30:17.848Z,20.80
2022-08-31T20:32:44.116Z,20.74
2022-08-31T20:35:10.376Z,20.64
2022-08-31T20:37:36.627Z,20.63
2022-08-31T20:40:02.897Z,20.63
2022-08-31T20:42:29.211Z,20.56
2022-08-31T20:44:55.464Z,20.50
2022-08-31T20:47:21.628Z,20.55
2022-08-31T20:49:48.192Z,20.61
2022-08-31T20:52:14.439Z,20.59
2022-08-31T20:54:40.611Z,20.49
2022-08-31T20:57:06.766Z,20.43
2022-08-31T20:59:32.915Z,20.46
2022-08-31T21:01:59.085Z,20.32
2022-08-31T21:04:25.341Z,20.32
2022-08-31T21:06:51.484Z,20.28
2022-08-31T21:09:17.635Z,20.20
2022-08-31T21:11:43.813Z,20.17
2022-08-31T21:14:09.949Z,20.05
2022-08-31T21:16:38.913Z,20.05
2022-08-31T21:19:05.121Z,19.99
2022-08-31T21:21:31.240Z,20.05
2022-08-31T21:23:57.369Z,20.02
2022-08-31T21:26:23.531Z,19.87
2022-08-31T21:28:49.676Z,19.79
2022-08-31T21:31:28.928Z,19.74
2022-08-31T21:33:55.700Z,19.63
2022-08-31T21:36:21.830Z,19.58
2022-08-31T21:38:47.971Z,19.53
2022-08-31T21:41:15.678Z,19.53
2022-08-31T21:43:41.818Z,19.46
2022-08-31T21:46:08.060Z,19.40
2022-08-31T21:48:34.257Z,19.36
2022-08-31T21:51:00.396Z,19.25
2022-08-31T21:53:26.531Z,19.22
2022-08-31T21:55:52.747Z,19.14
2022-08-31T21:58:18.894Z,19.20
2022-08-31T22:00:45.035Z,19.21
2022-08-31T22:03:11.280Z,19.21
2022-08-31T22:05:37.455Z,19.13
2022-08-31T22:08:03.588Z,19.12
2022-08-31T22:10:29.737Z,19.07
2022-08-31T22:12:55.879Z,19.04
2022-08-31T22:15:22.012Z,19.03
2022-08-31T22:18:11.400Z,19.00
2022-08-31T22:20:34.300Z,19.03
2022-08-31T22:23:00.676Z,19.02
2022-08-31T22:25:26.939Z,18.94
2022-08-31T22:27:53.065Z,18.90
2022-08-31T22:30:21.022Z,18.66
2022-08-31T22:32:47.166Z,18.70
2022-08-31T22:35:13.302Z,18.56
2022-08-31T22:37:39.474Z,18.45
2022-08-31T22:40:05.683Z,18.46
2022-08-31T22:42:31.840Z,18.39
2022-08-31T22:44:57.984Z,18.38
2022-08-31T22:47:24.132Z,18.38
2022-08-31T22:49:50.262Z,18.21
2022-08-31T22:52:17.414Z,18.10
2022-08-31T22:54:43.686Z,17.93
2022-08-31T22:57:09.819Z,18.06
2022-08-31T22:59:36.457Z,18.26
2022-08-31T23:02:02.634Z,18.08
2022-08-31T23:04:28.824Z,18.09
2022-08-31T23:06:54.994Z,17.96
2022-08-31T23:09:21.335Z,17.88
2022-08-31T23:11:47.582Z,17.86
2022-08-31T23:14:13.735Z,17.80
2022-08-31T23:16:39.892Z,17.86
2022-08-31T23:19:06.018Z,17.83
2022-08-31T23:21:32.193Z,17.86
2022-08-31T23:23:58.326Z,17.76
2022-08-31T23:26:24.470Z,17.74
2022-08-31T23:28:50.610Z,17.71
2022-08-31T23:31:16.840Z,17.64
2022-08-31T23:33:43.061Z,17.68
2022-08-31T23:36:09.204Z,17.64
2022-08-31T23:38:35.330Z,17.73
2022-08-31T23:41:01.470Z,17.77
2022-08-31T23:43:27.655Z,17.63
2022-08-31T23:45:53.831Z,17.73
2022-08-31T23:48:20.160Z,17.77
2022-08-31T23:50:46.422Z,17.71
2022-08-31T23:53:12.556Z,17.63
2022-08-31T23:55:38.697Z,17.61
2022-08-31T23:58:05.374Z,17.55
